Time;durP1;ratioP1;P1;durP2;ratioP2;P2;SDS_P1;SDS_P2;PMS_P1;PMS_P2;Temp;Humidity;BMP_temperature;BMP_pressure;BME280_temperature;BME280_humidity;BME280_pressure;Samples;Min_cycle;Max_cycle;Signal;HPM_P1;HPM_P2
2022/01/23 00:00:20;;;;;;;4.70;2.30;;;20.20;55.80;;;;;;105800761;28;20031;-72
2022/01/23 00:50:20;;;;;;;5.63;1.17;;;20.10;56.40;;;;;;105841988;28;20032;-72
2022/01/23 01:40:23;;;;;;;14.85;2.40;;;19.80;55.70;;;;;;105472315;28;20079;-71
2022/01/23 04:11:02;;;;;;;2.60;0.80;;;18.40;55.00;;;;;;104845826;28;20064;-72
2022/01/23 05:01:07;;;;;;;5.55;1.20;;;18.20;54.70;;;;;;105238291;22;20501;-78
2022/01/23 05:51:12;;;;;;;4.77;1.50;;;17.90;54.50;;;;;;104972263;28;20457;-79
2022/01/23 06:41:12;;;;;;;4.10;0.77;;;17.70;53.80;;;;;;105028350;28;20264;-79
2022/01/23 07:31:30;;;;;;;2.15;0.50;;;17.50;53.80;;;;;;105040914;28;20095;-79
2022/01/23 08:21:33;;;;;;;3.73;0.73;;;18.30;50.10;;;;;;105099141;28;20147;-78
2022/01/23 10:01:36;;;;;;;25.48;3.33;;;20.30;45.50;;;;;;104773489;28;20048;-78
2022/01/23 11:54:14;;;;;;;18.33;3.60;;;20.70;49.00;;;;;;1024609;28;20061;-81
2022/01/23 11:54:48;;;;;;;24.83;3.13;;;20.70;49.10;;;;;;1038343;28;20045;-81
2022/01/23 11:55:32;;;;;;;19.92;3.67;;;20.70;49.10;;;;;;1038684;28;20018;-83
2022/01/23 11:56:45;;;;;;;14.05;3.55;;;20.70;49.10;;;;;;1038817;28;20025;-82
2022/01/23 11:57:34;;;;;;;17.77;3.08;;;20.70;49.00;;;;;;991562;28;98916;-81
2022/01/23 12:07:45;;;;;;;16.52;2.83;;;20.70;49.10;;;;;;21113021;27;20616;-81
2022/01/23 12:17:45;;;;;;;21.85;2.90;;;20.60;49.50;;;;;;21069557;28;20044;-79
2022/01/23 12:27:47;;;;;;;17.67;3.28;;;20.70;49.60;;;;;;21065509;28;20044;-81
2022/01/23 12:37:58;;;;;;;23.55;4.00;;;20.60;50.00;;;;;;21042918;28;20044;-82
2022/01/23 12:48:30;;;;;;;21.45;3.25;;;20.60;51.00;;;;;;21041061;28;20025;-83
2022/01/23 12:58:33;;;;;;;16.48;3.08;;;20.60;50.80;;;;;;21032789;28;20024;-84
2022/01/23 13:08:46;;;;;;;20.60;3.85;;;20.70;51.60;;;;;;21010327;28;20024;-79
2022/01/23 13:39:42;;;;;;;14.75;3.17;;;20.90;49.10;;;;;;20942265;28;20025;-82
2022/01/23 14:00:25;;;;;;;17.80;3.15;;;22.10;46.80;;;;;;20898492;28;20041;-80
2022/01/23 14:10:36;;;;;;;7.77;2.33;;;22.40;46.10;;;;;;20937488;28;20035;-82
2022/01/23 14:20:42;;;;;;;9.23;1.80;;;22.60;45.70;;;;;;20938320;28;20021;-81
2022/01/23 14:30:54;;;;;;;17.63;2.53;;;22.70;45.50;;;;;;20943878;28;20029;-82
2022/01/23 14:41:01;;;;;;;11.88;2.40;;;22.90;45.40;;;;;;20936984;28;20078;-82
2022/01/23 14:51:04;;;;;;;12.87;2.40;;;23.10;45.20;;;;;;20912926;28;20047;-83
2022/01/23 15:01:10;;;;;;;12.38;3.33;;;22.60;46.50;;;;;;20955092;28;20040;-83
2022/01/23 15:11:11;;;;;;;11.73;2.72;;;22.20;47.70;;;;;;20951546;28;20056;-82
2022/01/23 15:21:12;;;;;;;24.75;2.72;;;21.90;48.50;;;;;;20951472;28;20021;-80
2022/01/23 15:31:13;;;;;;;12.75;2.13;;;21.70;49.20;;;;;;20950171;28;20021;-83
2022/01/23 15:41:14;;;;;;;18.02;3.40;;;21.60;49.60;;;;;;20948110;28;20024;-83
2022/01/23 15:51:15;;;;;;;9.43;1.45;;;21.60;49.60;;;;;;20951576;28;20083;-82
2022/01/23 16:01:16;;;;;;;5.72;1.20;;;21.60;49.70;;;;;;20952110;28;20033;-83
2022/01/23 16:11:17;;;;;;;6.00;2.05;;;21.60;49.40;;;;;;20943226;28;20024;-82
2022/01/23 16:21:19;;;;;;;6.63;1.88;;;21.60;48.60;;;;;;20947262;28;20025;-79
2022/01/23 16:31:19;;;;;;;7.85;2.03;;;21.40;49.10;;;;;;20959830;28;20040;-82
2022/01/23 16:41:22;;;;;;;7.17;2.17;;;21.30;49.60;;;;;;20952220;28;20029;-83
2022/01/23 16:51:23;;;;;;;27.15;4.85;;;21.10;49.90;;;;;;20932484;28;20439;-78
2022/01/23 17:01:24;;;;;;;6.05;2.15;;;20.90;51.80;;;;;;20933388;28;20155;-79
2022/01/23 17:11:25;;;;;;;6.83;2.73;;;20.70;50.70;;;;;;20934732;28;20037;-79
2022/01/23 17:21:26;;;;;;;6.82;1.88;;;20.60;50.90;;;;;;20933373;28;20031;-76
2022/01/23 17:31:26;;;;;;;8.50;2.92;;;20.60;51.00;;;;;;20926242;28;20025;-79
2022/01/23 17:41:27;;;;;;;13.15;2.97;;;20.50;51.30;;;;;;20931098;28;20506;-77
2022/01/23 17:51:29;;;;;;;8.02;2.67;;;20.60;52.10;;;;;;20929813;28;20036;-78
2022/01/23 18:01:34;;;;;;;8.10;2.53;;;20.60;52.20;;;;;;20927617;28;20036;-78
2022/01/23 18:11:34;;;;;;;8.93;2.83;;;20.50;52.20;;;;;;20927523;28;20033;-79
2022/01/23 18:21:35;;;;;;;12.25;2.33;;;20.50;52.30;;;;;;20927060;28;20586;-78
2022/01/23 18:31:36;;;;;;;2.90;1.83;;;20.50;52.30;;;;;;20931820;28;20571;-79
2022/01/23 18:41:37;;;;;;;13.88;3.40;;;20.50;52.30;;;;;;20937376;28;20118;-79
2022/01/23 18:51:38;;;;;;;8.88;1.92;;;20.40;52.40;;;;;;20939876;28;20033;-78
2022/01/23 19:01:45;;;;;;;5.43;1.80;;;20.40;52.40;;;;;;20940923;28;20494;-78
2022/01/23 19:11:50;;;;;;;16.85;2.65;;;20.40;52.50;;;;;;20945670;28;20009;-79
2022/01/23 19:21:52;;;;;;;18.05;2.42;;;20.30;53.50;;;;;;20937872;28;20083;-77
2022/01/23 19:31:53;;;;;;;17.33;2.30;;;20.30;53.00;;;;;;20915766;28;20169;-78
2022/01/23 19:42:09;;;;;;;31.67;3.58;;;20.40;53.20;;;;;;20930488;28;20061;-81
2022/01/23 19:52:10;;;;;;;44.65;7.32;;;20.40;53.50;;;;;;20942146;28;20025;-83
2022/01/23 20:02:11;;;;;;;48.03;6.10;;;20.50;54.10;;;;;;20954929;28;20044;-81
